LTBU/TEQ METAR and TAF weather

Enter ICAO airport designator
Station Type Date Time Source
LTBU METAR 2020/07/02 17:50 UTC NOAA

LTBU 021750Z 05012KT CAVOK 23/20 Q1011


Station Type Date Time Source
LTBU Decoded METAR 2020/07/02 17:50 UTC NOAA

Corlu, Turkey (LTBU) 41-08N 027-55E
Jul 02, 2020 - 01:50 PM EDT / 2020.07.02 1750 UTC
Wind: from the NE (050 degrees) at 14 MPH (12 KT):0
Visibility: greater than 7 mile(s):0
Temperature: 73 F (23 C)
Dew Point: 68 F (20 C)
Relative Humidity: 83%
Pressure (altimeter): 29.85 in. Hg (1011 hPa)
ob: LTBU 021750Z 05012KT CAVOK 23/20 Q1011
cycle: 18

Station Type Date Time Source
LTBU TAF 2020/07/02 18:03 UTC NOAA

TAF LTBU 021640Z 0218/0318 04016KT CAVOK
BECMG 0218/0221 02006KT
BECMG 0300/0303 SCT017
BECMG 0305/0308 04016KT CAVOK

Example: see airport list